Time;durP1;ratioP1;P1;durP2;ratioP2;P2;SDS_P1;SDS_P2;PMS_P1;PMS_P2;Temp;Humidity;BMP_temperature;BMP_pressure;BME280_temperature;BME280_humidity;BME280_pressure;Samples;Min_cycle;Max_cycle;Signal;HPM_P1;HPM_P2
2023/03/03 00:00:49;;;;;;;12.93;2.00;;;1.90;27.50;;;;;;5028167;28;20041;-57
2023/03/03 00:03:21;;;;;;;8.13;1.83;;;4.30;65.30;;;;;;5029546;28;20041;-58
2023/03/03 00:05:47;;;;;;;8.18;1.58;;;2.00;99.10;;;;;;5029812;28;20438;-58
2023/03/03 00:08:12;;;;;;;7.10;2.05;;;4.40;99.90;;;;;;5029462;28;20053;-58
2023/03/03 00:10:38;;;;;;;4.07;1.63;;;1.90;99.90;;;;;;5044868;28;20033;-58
2023/03/03 00:13:12;;;;;;;6.72;1.70;;;2.20;99.90;;;;;;5030325;28;20041;-58
2023/03/03 00:15:37;;;;;;;6.28;1.73;;;4.50;99.90;;;;;;5030326;28;20048;-57
2023/03/03 00:18:21;;;;;;;6.53;1.73;;;3.80;99.90;;;;;;5029209;28;20046;-58
2023/03/03 00:20:51;;;;;;;8.13;1.77;;;2.40;99.90;;;;;;5010305;28;20054;-58
2023/03/03 00:23:39;;;;;;;9.52;1.77;;;2.00;99.90;;;;;;5017541;28;20426;-58
2023/03/03 00:26:36;;;;;;;9.80;1.67;;;3.20;99.90;;;;;;5028790;28;20048;-57
2023/03/03 00:29:35;;;;;;;6.85;1.95;;;4.20;99.90;;;;;;5028224;28;20399;-57
2023/03/03 00:32:36;;;;;;;6.70;1.55;;;4.60;99.90;;;;;;5012894;28;20415;-57
2023/03/03 00:35:29;;;;;;;3.95;1.55;;;4.50;99.90;;;;;;5014383;28;20061;-58
2023/03/03 00:37:59;;;;;;;6.28;1.40;;;4.30;99.90;;;;;;5020708;28;20045;-57
2023/03/03 00:40:37;;;;;;;6.75;1.52;;;3.50;99.90;;;;;;5032472;28;20037;-57
2023/03/03 00:43:24;;;;;;;8.57;1.55;;;2.00;99.90;;;;;;5030162;28;20479;-58
2023/03/03 00:45:55;;;;;;;6.30;2.40;;;4.10;99.90;;;;;;5033502;28;20124;-58
2023/03/03 00:48:36;;;;;;;4.25;1.50;;;2.00;99.90;;;;;;5031773;28;20036;-58
2023/03/03 00:51:24;;;;;;;5.35;1.50;;;3.40;99.90;;;;;;5033767;28;20048;-57
2023/03/03 00:53:49;;;;;;;9.80;1.60;;;2.10;99.90;;;;;;5033199;28;20539;-58
2023/03/03 00:56:15;;;;;;;7.43;1.80;;;4.30;99.90;;;;;;5032576;28;20128;-57
2023/03/03 00:58:43;;;;;;;4.90;1.55;;;4.70;99.90;;;;;;5031812;28;20429;-57
2023/03/03 01:01:08;;;;;;;7.15;1.77;;;3.10;99.90;;;;;;5031766;28;20056;-58
2023/03/03 01:03:34;;;;;;;6.90;1.50;;;2.70;99.90;;;;;;5033120;28;20503;-57
2023/03/03 01:06:00;;;;;;;9.65;1.55;;;2.50;99.90;;;;;;5031579;28;20029;-57
2023/03/03 01:08:25;;;;;;;3.42;1.20;;;2.20;99.90;;;;;;5032965;28;20029;-58
2023/03/03 01:10:54;;;;;;;10.65;1.67;;;3.40;99.90;;;;;;5032741;28;20048;-58
2023/03/03 01:13:23;;;;;;;4.60;1.90;;;3.00;99.90;;;;;;5031541;28;20077;-57
2023/03/03 01:15:49;;;;;;;9.85;1.60;;;2.20;99.90;;;;;;5030417;28;20041;-57
2023/03/03 01:18:15;;;;;;;5.55;1.40;;;4.00;99.90;;;;;;5032922;28;20069;-58
2023/03/03 01:20:41;;;;;;;12.38;1.63;;;2.30;99.90;;;;;;5032938;28;20139;-58
2023/03/03 01:23:07;;;;;;;5.60;1.50;;;4.70;99.90;;;;;;5032166;28;20483;-58
2023/03/03 01:25:33;;;;;;;3.78;1.40;;;2.20;99.90;;;;;;5032066;28;20045;-58
2023/03/03 01:27:59;;;;;;;10.77;1.83;;;3.90;99.90;;;;;;5031083;28;20038;-57
2023/03/03 01:30:25;;;;;;;11.27;1.70;;;2.60;99.90;;;;;;5031583;28;20119;-57
2023/03/03 01:32:52;;;;;;;12.30;2.13;;;3.90;99.90;;;;;;5048249;28;20614;-58
2023/03/03 01:35:17;;;;;;;9.18;1.73;;;4.60;99.90;;;;;;5031329;28;20044;-58
2023/03/03 01:37:43;;;;;;;7.72;1.52;;;3.70;99.90;;;;;;5032592;28;20499;-58
2023/03/03 01:40:34;;;;;;;4.43;1.38;;;2.10;99.90;;;;;;5032577;28;20037;-57
2023/03/03 01:43:00;;;;;;;6.82;1.77;;;4.60;99.90;;;;;;5030883;28;20041;-58
2023/03/03 01:45:28;;;;;;;5.15;1.83;;;2.70;99.90;;;;;;5030647;28;20403;-57
2023/03/03 01:48:12;;;;;;;9.90;1.50;;;2.50;99.90;;;;;;5031582;28;20068;-57
2023/03/03 01:50:41;;;;;;;11.27;1.85;;;4.50;99.90;;;;;;5030532;28;20092;-58
2023/03/03 01:53:14;;;;;;;5.40;1.27;;;3.00;99.90;;;;;;5032425;28;20041;-57
2023/03/03 01:55:41;;;;;;;8.32;1.20;;;3.50;99.90;;;;;;5032480;28;20065;-57
2023/03/03 01:58:27;;;;;;;6.85;1.42;;;2.10;99.90;;;;;;5030308;28;20046;-57
2023/03/03 02:00:59;;;;;;;4.65;1.33;;;4.00;99.90;;;;;;5030311;28;20050;-57
2023/03/03 02:03:25;;;;;;;6.63;2.17;;;4.30;99.90;;;;;;5032531;28;20118;-57
2023/03/03 02:05:54;;;;;;;5.20;1.40;;;4.60;99.90;;;;;;5031101;28;21355;-57
2023/03/03 02:08:25;;;;;;;4.30;1.48;;;2.40;99.90;;;;;;5032185;28;20037;-57
2023/03/03 02:10:51;;;;;;;5.68;1.60;;;3.60;99.90;;;;;;5031425;28;20068;-58
2023/03/03 02:13:17;;;;;;;5.82;1.40;;;2.40;99.90;;;;;;5032291;28;20049;-57
2023/03/03 02:15:42;;;;;;;2.65;1.20;;;2.20;99.90;;;;;;5031560;28;20041;-57
2023/03/03 02:18:11;;;;;;;7.13;1.63;;;3.40;99.90;;;;;;5029958;28;20037;-58
2023/03/03 02:20:48;;;;;;;5.70;1.52;;;2.70;99.90;;;;;;5012071;28;20419;-58
2023/03/03 02:23:25;;;;;;;9.88;2.03;;;2.20;99.90;;;;;;5014970;28;20041;-57
2023/03/03 02:25:57;;;;;;;6.85;1.60;;;4.00;99.90;;;;;;5016392;28;20091;-57
2023/03/03 02:28:27;;;;;;;7.05;1.77;;;4.00;99.90;;;;;;5032424;28;20048;-57
2023/03/03 02:30:57;;;;;;;9.55;1.60;;;3.80;99.90;;;;;;5032067;28;20501;-57
2023/03/03 02:33:23;;;;;;;13.10;1.70;;;3.20;99.90;;;;;;5029000;28;20049;-57
2023/03/03 02:35:50;;;;;;;8.38;2.28;;;3.50;99.90;;;;;;5030480;28;20033;-57
2023/03/03 02:38:33;;;;;;;4.57;1.50;;;2.50;99.90;;;;;;5028466;28;20045;-58
2023/03/03 02:41:12;;;;;;;5.95;1.55;;;1.90;99.90;;;;;;5030305;28;20419;-58
2023/03/03 02:43:51;;;;;;;7.30;2.05;;;2.80;99.90;;;;;;5024967;28;20033;-58
2023/03/03 02:46:18;;;;;;;6.68;1.55;;;1.90;99.90;;;;;;5031638;28;20029;-58
2023/03/03 02:48:43;;;;;;;9.02;1.73;;;4.60;99.90;;;;;;5027557;28;20042;-58
2023/03/03 02:51:09;;;;;;;3.58;1.58;;;2.20;99.90;;;;;;5028452;28;20122;-57
2023/03/03 02:53:34;;;;;;;9.48;1.92;;;3.70;99.90;;;;;;5030386;28;20098;-57
2023/03/03 02:56:00;;;;;;;9.65;1.95;;;2.80;99.90;;;;;;5030326;28;20087;-58
2023/03/03 02:58:26;;;;;;;4.47;1.60;;;3.40;99.90;;;;;;5031362;28;20041;-58
2023/03/03 03:00:51;;;;;;;4.28;1.70;;;2.20;99.90;;;;;;5031111;28;20438;-57
2023/03/03 03:03:17;;;;;;;17.52;2.03;;;3.30;99.90;;;;;;5030651;28;20049;-58
2023/03/03 03:05:42;;;;;;;7.05;1.48;;;1.80;99.90;;;;;;5031174;28;20037;-58
2023/03/03 03:08:08;;;;;;;7.10;1.90;;;1.80;99.90;;;;;;5030839;28;20052;-58
2023/03/03 03:10:35;;;;;;;10.57;1.77;;;1.80;99.90;;;;;;5030760;28;20041;-58
2023/03/03 03:13:01;;;;;;;3.60;1.48;;;4.30;99.90;;;;;;5028420;28;20128;-58
2023/03/03 03:15:26;;;;;;;10.50;1.70;;;3.10;99.90;;;;;;5029890;28;20112;-58
2023/03/03 03:17:52;;;;;;;9.43;1.70;;;1.90;99.90;;;;;;5029392;28;20463;-57
2023/03/03 03:20:17;;;;;;;10.05;1.50;;;3.80;99.90;;;;;;5030729;28;20056;-58
2023/03/03 03:22:43;;;;;;;6.13;1.48;;;2.30;99.90;;;;;;5028945;28;20049;-58
2023/03/03 03:25:09;;;;;;;8.40;1.92;;;3.40;99.90;;;;;;5031080;28;20041;-57
2023/03/03 03:27:34;;;;;;;6.20;1.52;;;4.00;99.90;;;;;;5029790;28;20487;-58
2023/03/03 03:30:00;;;;;;;15.85;1.90;;;3.80;99.90;;;;;;5030826;28;20099;-58
2023/03/03 03:32:26;;;;;;;8.00;1.92;;;4.90;99.90;;;;;;5029393;28;20159;-58
2023/03/03 03:34:51;;;;;;;4.28;1.38;;;2.30;99.90;;;;;;5030722;28;20499;-58
2023/03/03 03:37:17;;;;;;;6.68;1.50;;;1.90;99.90;;;;;;5029974;28;20048;-57
2023/03/03 03:39:42;;;;;;;5.28;1.40;;;1.80;99.90;;;;;;5029745;28;20042;-58
2023/03/03 03:42:08;;;;;;;5.47;1.60;;;2.40;99.90;;;;;;5028629;28;20099;-58
2023/03/03 03:44:34;;;;;;;7.40;1.52;;;1.80;99.90;;;;;;5030751;28;20495;-58
2023/03/03 03:46:59;;;;;;;9.93;1.58;;;4.60;99.90;;;;;;5030050;28;20033;-58
2023/03/03 03:49:25;;;;;;;9.38;1.70;;;4.30;99.90;;;;;;5030509;28;20045;-58
2023/03/03 03:51:50;;;;;;;4.55;1.40;;;4.40;99.90;;;;;;5029635;28;20439;-58
2023/03/03 03:54:16;;;;;;;4.97;1.40;;;3.90;99.90;;;;;;5029958;28;20403;-58
2023/03/03 03:56:41;;;;;;;8.05;1.85;;;1.90;99.90;;;;;;5027599;28;20124;-58
2023/03/03 03:59:07;;;;;;;7.50;1.80;;;2.50;99.90;;;;;;5030430;28;20041;-58
2023/03/03 04:01:33;;;;;;;9.80;2.17;;;3.00;99.90;;;;;;5030609;28;20033;-58
2023/03/03 04:03:58;;;;;;;5.97;1.48;;;4.60;99.90;;;;;;5029707;28;20064;-57
2023/03/03 04:06:24;;;;;;;9.10;1.80;;;2.40;99.90;;;;;;5031325;28;20034;-58
2023/03/03 04:08:50;;;;;;;10.65;1.60;;;4.10;99.90;;;;;;5034503;28;20033;-58
2023/03/03 04:11:15;;;;;;;8.18;1.60;;;4.60;99.90;;;;;;5034293;28;20152;-58
2023/03/03 04:13:41;;;;;;;7.10;1.67;;;3.40;99.90;;;;;;5032459;28;20522;-58
2023/03/03 04:16:07;;;;;;;3.70;1.38;;;4.50;99.90;;;;;;5034552;28;20632;-57
2023/03/03 04:18:33;;;;;;;5.03;1.27;;;3.00;99.90;;;;;;5032153;28;20061;-58
2023/03/03 04:20:59;;;;;;;4.40;1.50;;;1.80;99.90;;;;;;5034096;28;20057;-57
2023/03/03 04:23:24;;;;;;;6.80;1.33;;;4.30;99.90;;;;;;5032408;28;20088;-57
2023/03/03 04:25:50;;;;;;;6.88;1.75;;;2.40;99.90;;;;;;5033098;28;20407;-57
2023/03/03 04:28:16;;;;;;;6.80;1.60;;;2.00;99.90;;;;;;5033373;28;20063;-57
2023/03/03 04:30:42;;;;;;;3.53;1.45;;;2.80;99.90;;;;;;5032770;28;20038;-58
2023/03/03 04:33:08;;;;;;;4.25;1.40;;;2.20;99.90;;;;;;5048631;28;20049;-57
2023/03/03 04:35:33;;;;;;;5.40;1.30;;;2.20;99.90;;;;;;5034048;28;20068;-58
2023/03/03 04:37:59;;;;;;;7.30;1.55;;;3.30;99.90;;;;;;5030472;28;20041;-58
2023/03/03 04:40:25;;;;;;;3.22;1.17;;;3.50;99.90;;;;;;5033970;28;20052;-58
2023/03/03 04:42:50;;;;;;;7.22;1.65;;;4.50;99.90;;;;;;5032158;28;20033;-58
2023/03/03 04:45:16;;;;;;;6.35;1.30;;;4.80;99.90;;;;;;5033595;28;20567;-58
2023/03/03 04:47:42;;;;;;;7.32;1.30;;;4.40;99.90;;;;;;5032133;28;20044;-58
2023/03/03 04:50:08;;;;;;;6.53;1.40;;;3.70;99.90;;;;;;5033737;28;20084;-58
2023/03/03 04:52:34;;;;;;;6.68;1.50;;;2.40;99.90;;;;;;5029862;28;20052;-58
2023/03/03 04:55:00;;;;;;;2.97;1.20;;;1.90;99.90;;;;;;5033842;28;20494;-58
2023/03/03 04:57:25;;;;;;;8.23;1.63;;;4.60;99.90;;;;;;5033080;28;20045;-58
2023/03/03 04:59:51;;;;;;;5.93;1.15;;;3.10;99.90;;;;;;5033576;28;20459;-57
2023/03/03 05:02:17;;;;;;;5.63;1.63;;;3.80;99.90;;;;;;5031339;28;20506;-58
2023/03/03 05:04:42;;;;;;;6.20;1.63;;;3.50;99.90;;;;;;5032957;28;20120;-58
2023/03/03 05:07:08;;;;;;;9.60;1.70;;;2.10;99.90;;;;;;5032218;28;20507;-58
2023/03/03 05:09:34;;;;;;;8.30;1.40;;;2.50;99.90;;;;;;5032279;28;20041;-58
2023/03/03 05:11:59;;;;;;;8.90;1.70;;;2.80;99.90;;;;;;5033565;28;20175;-58
2023/03/03 05:14:26;;;;;;;3.58;1.40;;;4.30;99.90;;;;;;5033418;28;20049;-58
2023/03/03 05:16:51;;;;;;;5.57;1.48;;;4.50;99.90;;;;;;5028747;28;20051;-57
2023/03/03 05:19:17;;;;;;;7.35;1.42;;;4.20;99.90;;;;;;5031568;28;20133;-58
2023/03/03 05:21:43;;;;;;;4.55;1.60;;;4.30;99.90;;;;;;5033231;28;20053;-58
2023/03/03 05:24:11;;;;;;;6.32;1.58;;;3.70;99.90;;;;;;5032940;28;20034;-58
2023/03/03 05:26:36;;;;;;;4.03;1.35;;;3.70;99.90;;;;;;5032099;28;20029;-58
2023/03/03 05:29:03;;;;;;;11.13;1.70;;;4.40;99.90;;;;;;5033192;28;20048;-57
2023/03/03 05:31:28;;;;;;;6.78;1.67;;;2.50;99.90;;;;;;5032537;28;20041;-58
2023/03/03 05:33:54;;;;;;;3.90;1.48;;;1.90;99.90;;;;;;5032066;28;20472;-58
2023/03/03 05:36:20;;;;;;;3.25;1.40;;;4.10;99.90;;;;;;5031178;28;20037;-58
2023/03/03 05:38:45;;;;;;;8.32;1.52;;;1.90;99.90;;;;;;5032787;28;20041;-57
2023/03/03 05:41:11;;;;;;;4.13;1.45;;;4.40;99.90;;;;;;5014749;28;20039;-57
2023/03/03 05:43:37;;;;;;;9.38;1.58;;;2.40;99.90;;;;;;5032815;28;20384;-57
2023/03/03 05:46:02;;;;;;;8.23;1.60;;;2.00;99.90;;;;;;5031443;28;20056;-58
2023/03/03 05:48:28;;;;;;;4.75;1.48;;;1.90;99.90;;;;;;5031698;28;20039;-58
2023/03/03 05:50:57;;;;;;;4.80;1.75;;;3.40;99.90;;;;;;5032295;28;20045;-57
2023/03/03 05:53:22;;;;;;;4.03;1.30;;;2.60;99.90;;;;;;5032599;28;20104;-58
2023/03/03 05:55:48;;;;;;;4.90;1.30;;;4.30;99.90;;;;;;5032715;28;20430;-57
2023/03/03 05:58:13;;;;;;;6.68;1.58;;;4.00;99.90;;;;;;5031835;28;20422;-57
2023/03/03 06:00:39;;;;;;;2.88;1.42;;;3.90;99.90;;;;;;5031052;28;20033;-58
2023/03/03 06:03:05;;;;;;;2.85;1.23;;;4.50;99.90;;;;;;5032309;28;20407;-57
2023/03/03 06:05:30;;;;;;;10.48;1.55;;;4.50;99.90;;;;;;5032017;28;20041;-58
2023/03/03 06:07:56;;;;;;;7.97;1.58;;;4.90;99.90;;;;;;5030506;28;20553;-57
2023/03/03 06:10:21;;;;;;;4.90;1.52;;;3.80;99.90;;;;;;5031736;28;20386;-58
2023/03/03 06:12:47;;;;;;;8.65;1.75;;;4.30;99.90;;;;;;5031117;28;20041;-58
2023/03/03 06:15:12;;;;;;;9.65;2.08;;;3.70;99.90;;;;;;5031055;28;20495;-58
2023/03/03 06:17:38;;;;;;;6.88;1.50;;;3.50;99.90;;;;;;5031498;28;20060;-58
2023/03/03 06:20:04;;;;;;;9.82;1.40;;;3.40;99.90;;;;;;5031276;28;20184;-58
2023/03/03 06:22:30;;;;;;;2.47;0.98;;;5.10;99.90;;;;;;5031680;28;20119;-57
2023/03/03 06:24:56;;;;;;;3.83;1.20;;;4.50;99.90;;;;;;5031397;28;20167;-58
2023/03/03 06:27:21;;;;;;;6.70;1.65;;;4.00;99.90;;;;;;5030619;28;20049;-58
2023/03/03 06:29:47;;;;;;;3.97;1.50;;;5.00;99.90;;;;;;5031168;28;20041;-58
2023/03/03 06:32:12;;;;;;;4.72;1.50;;;2.70;99.90;;;;;;5031892;28;20061;-57
2023/03/03 06:34:38;;;;;;;4.90;1.27;;;2.60;99.90;;;;;;5031795;28;20442;-58
2023/03/03 06:37:04;;;;;;;5.65;1.63;;;3.40;99.90;;;;;;5030759;28;20046;-58
2023/03/03 06:39:29;;;;;;;6.10;1.33;;;2.90;99.90;;;;;;5031667;28;20065;-57
2023/03/03 06:41:55;;;;;;;4.28;1.40;;;3.00;99.90;;;;;;5031269;28;20080;-58
2023/03/03 06:44:21;;;;;;;8.27;1.60;;;5.20;99.90;;;;;;5029489;28;20087;-58
2023/03/03 06:46:46;;;;;;;9.45;1.75;;;3.80;99.90;;;;;;5028863;28;20387;-58
2023/03/03 06:49:12;;;;;;;9.98;1.52;;;3.40;99.90;;;;;;5026525;28;20095;-58
2023/03/03 06:51:38;;;;;;;8.80;1.65;;;3.70;99.90;;;;;;5030541;28;20057;-58
2023/03/03 06:54:22;;;;;;;5.68;1.20;;;4.10;99.90;;;;;;5029999;28;20102;-58
2023/03/03 06:56:50;;;;;;;3.30;1.30;;;5.30;99.90;;;;;;5029929;28;20507;-58
2023/03/03 06:59:19;;;;;;;5.57;1.30;;;5.40;99.90;;;;;;5026741;28;20119;-58
2023/03/03 07:01:47;;;;;;;10.50;1.63;;;4.80;99.90;;;;;;5030303;28;20068;-58
2023/03/03 07:04:32;;;;;;;7.57;1.60;;;3.80;99.90;;;;;;5028957;28;20842;-58
2023/03/03 07:07:20;;;;;;;5.82;1.40;;;5.50;99.90;;;;;;5027703;28;20041;-58
2023/03/03 07:09:48;;;;;;;4.80;1.38;;;3.60;99.90;;;;;;5030148;28;20115;-58
2023/03/03 07:12:17;;;;;;;9.40;1.58;;;3.80;99.90;;;;;;5029346;28;20052;-58
2023/03/03 07:14:46;;;;;;;4.18;1.58;;;3.70;99.90;;;;;;5028295;28;20691;-58
2023/03/03 07:17:19;;;;;;;7.65;1.70;;;4.50;99.90;;;;;;5026516;28;20408;-58
2023/03/03 07:19:46;;;;;;;4.88;1.30;;;4.10;99.90;;;;;;5042995;28;20458;-58
2023/03/03 07:22:19;;;;;;;4.13;1.67;;;4.50;99.90;;;;;;5029025;28;21537;-58
2023/03/03 07:25:00;;;;;;;6.05;1.40;;;6.30;99.90;;;;;;5021966;28;20095;-58
2023/03/03 07:27:28;;;;;;;4.47;1.50;;;5.00;99.90;;;;;;5027263;28;20029;-58
2023/03/03 07:30:16;;;;;;;5.32;1.58;;;5.50;99.90;;;;;;5028732;28;20038;-58
2023/03/03 07:32:44;;;;;;;3.92;1.77;;;5.00;99.90;;;;;;5028514;28;20498;-58
2023/03/03 07:35:28;;;;;;;5.40;1.73;;;5.10;99.90;;;;;;5029242;28;20064;-58
2023/03/03 07:37:53;;;;;;;5.13;1.48;;;5.80;99.90;;;;;;5029667;28;20124;-58
2023/03/03 07:40:40;;;;;;;3.40;1.50;;;6.90;99.90;;;;;;5029224;28;20049;-58
2023/03/03 07:43:27;;;;;;;10.05;2.13;;;7.20;99.90;;;;;;5027850;28;20128;-58
2023/03/03 07:46:00;;;;;;;5.97;1.83;;;5.70;99.90;;;;;;5026886;28;20359;-58
2023/03/03 07:48:34;;;;;;;4.07;1.30;;;7.00;99.90;;;;;;5028868;28;20070;-58
2023/03/03 07:51:04;;;;;;;5.28;1.63;;;6.80;99.90;;;;;;5042635;28;20087;-58
2023/03/03 07:53:34;;;;;;;8.05;1.48;;;7.10;1.00;;;;;;5024916;28;20047;-58
2023/03/03 07:56:00;;;;;;;5.38;1.40;;;5.90;99.90;;;;;;5026964;28;20546;-58
2023/03/03 07:58:36;;;;;;;6.05;1.73;;;6.00;99.90;;;;;;5029853;28;20106;-58
2023/03/03 08:01:38;;;;;;;7.20;1.52;;;6.50;99.90;;;;;;5026521;28;20076;-58
2023/03/03 08:04:13;;;;;;;5.95;1.40;;;6.00;99.90;;;;;;5020358;28;20566;-58
2023/03/03 08:06:46;;;;;;;4.78;1.80;;;7.50;1.00;;;;;;5029292;28;20119;-58
2023/03/03 08:09:18;;;;;;;7.07;1.38;;;7.20;99.90;;;;;;5028263;28;20041;-58
2023/03/03 08:12:34;;;;;;;6.00;1.60;;;6.10;1.00;;;;;;5030136;28;20048;-58
2023/03/03 08:15:22;;;;;;;5.25;1.60;;;6.90;99.90;;;;;;4969346;28;20034;-58
2023/03/03 08:17:49;;;;;;;5.32;1.40;;;6.30;1.00;;;;;;5018705;28;20175;-58
2023/03/03 08:20:44;;;;;;;4.13;1.30;;;7.40;99.90;;;;;;5029768;28;20050;-58
2023/03/03 08:23:10;;;;;;;6.03;1.70;;;7.10;1.00;;;;;;5030116;28;20084;-58
2023/03/03 08:25:36;;;;;;;7.45;1.70;;;7.40;99.90;;;;;;5028770;28;20125;-58
2023/03/03 08:28:02;;;;;;;2.65;1.23;;;7.30;99.90;;;;;;5023911;28;20038;-58
2023/03/03 08:30:27;;;;;;;6.50;1.65;;;7.50;1.00;;;;;;5027360;28;20046;-58
2023/03/03 08:32:53;;;;;;;8.55;1.70;;;7.40;1.00;;;;;;5029530;28;20045;-58
2023/03/03 08:35:19;;;;;;;3.60;1.35;;;6.60;99.90;;;;;;5028280;28;20043;-58
2023/03/03 08:37:44;;;;;;;4.13;1.35;;;7.40;99.90;;;;;;5027772;28;20136;-58
2023/03/03 08:40:10;;;;;;;5.13;1.40;;;6.60;30.80;;;;;;5027908;28;20128;-58
2023/03/03 08:42:36;;;;;;;4.43;1.60;;;7.50;1.00;;;;;;5026737;28;20049;-57
2023/03/03 08:45:01;;;;;;;7.38;1.45;;;7.50;1.00;;;;;;5028039;28;20041;-58
2023/03/03 08:47:27;;;;;;;7.68;1.40;;;6.60;1.00;;;;;;5028461;28;20107;-58
2023/03/03 08:49:53;;;;;;;5.85;1.50;;;7.40;99.90;;;;;;5010888;28;20473;-58
2023/03/03 08:52:19;;;;;;;9.95;1.48;;;7.60;99.90;;;;;;5030911;28;20052;-58
2023/03/03 08:54:44;;;;;;;5.25;1.52;;;6.70;99.90;;;;;;5030330;28;20444;-58
2023/03/03 08:57:10;;;;;;;6.20;1.42;;;6.70;99.90;;;;;;5032778;28;20048;-58
2023/03/03 08:59:37;;;;;;;3.70;1.50;;;6.70;99.90;;;;;;5030214;28;20559;-58
2023/03/03 09:02:04;;;;;;;3.10;1.17;;;6.90;99.90;;;;;;5031736;28;20037;-58
2023/03/03 09:04:30;;;;;;;4.40;1.95;;;7.60;99.90;;;;;;5032229;28;20060;-58
2023/03/03 09:06:55;;;;;;;8.05;1.40;;;6.90;99.90;;;;;;5033059;28;20038;-58
2023/03/03 09:09:21;;;;;;;4.40;1.40;;;7.60;76.50;;;;;;5032353;28;20040;-58
2023/03/03 09:11:47;;;;;;;5.05;1.23;;;7.20;37.00;;;;;;5031691;28;20037;-58
2023/03/03 09:14:17;;;;;;;3.08;1.00;;;6.90;1.00;;;;;;5031989;28;20038;-58
2023/03/03 09:16:53;;;;;;;7.72;1.48;;;7.60;1.00;;;;;;5032939;28;20080;-58
2023/03/03 09:19:31;;;;;;;7.07;1.50;;;7.00;1.00;;;;;;5025509;28;20077;-59
2023/03/03 09:22:10;;;;;;;6.15;1.30;;;7.00;1.00;;;;;;5023687;28;20041;-58
2023/03/03 09:24:36;;;;;;;6.38;1.30;;;7.40;1.00;;;;;;5030235;28;21523;-58
2023/03/03 09:27:06;;;;;;;2.85;1.05;;;7.80;1.00;;;;;;5028147;28;20041;-62
2023/03/03 09:29:37;;;;;;;2.63;1.05;;;7.60;1.00;;;;;;5030645;28;20037;-62
2023/03/03 09:32:21;;;;;;;4.10;1.30;;;7.70;1.00;;;;;;5028011;28;20041;-62
2023/03/03 09:34:46;;;;;;;3.00;1.10;;;7.30;99.90;;;;;;5029303;28;20064;-62
2023/03/03 09:37:17;;;;;;;4.50;1.23;;;7.30;99.90;;;;;;5030722;28;20079;-62
2023/03/03 09:39:45;;;;;;;4.32;1.30;;;7.40;99.90;;;;;;5030086;28;20116;-62
2023/03/03 09:42:32;;;;;;;5.75;1.60;;;7.90;99.90;;;;;;5027702;28;20370;-62
2023/03/03 09:45:00;;;;;;;5.60;1.52;;;7.40;99.90;;;;;;5021536;28;20097;-62
2023/03/03 09:47:40;;;;;;;5.93;1.38;;;7.80;99.90;;;;;;5031142;28;20045;-62
2023/03/03 09:50:17;;;;;;;7.53;1.20;;;7.90;99.90;;;;;;5030995;28;20491;-62
2023/03/03 09:53:00;;;;;;;5.60;1.70;;;7.40;99.90;;;;;;5032139;28;20503;-62
2023/03/03 09:56:01;;;;;;;9.70;1.63;;;7.90;99.90;;;;;;5031788;28;20120;-62
2023/03/03 09:58:44;;;;;;;4.18;1.33;;;7.50;99.90;;;;;;5028300;28;20049;-62
2023/03/03 10:01:48;;;;;;;3.90;1.00;;;7.50;99.90;;;;;;5028581;28;20037;-71
2023/03/03 10:04:42;;;;;;;5.20;1.27;;;7.90;99.90;;;;;;5025931;28;20057;-62
2023/03/03 10:07:24;;;;;;;6.13;1.75;;;8.10;99.90;;;;;;5032271;28;20086;-62
2023/03/03 10:10:04;;;;;;;4.38;1.48;;;7.70;99.90;;;;;;5030994;28;20045;-62
2023/03/03 10:12:43;;;;;;;6.60;1.60;;;7.70;99.90;;;;;;5030588;28;20053;-63
2023/03/03 10:15:27;;;;;;;6.05;1.95;;;8.10;99.90;;;;;;5031213;28;20083;-62
2023/03/03 10:18:15;;;;;;;9.73;1.95;;;8.10;99.90;;;;;;5031544;28;20124;-62
2023/03/03 10:20:58;;;;;;;4.47;1.38;;;7.70;99.90;;;;;;5031712;28;20566;-62
2023/03/03 10:23:57;;;;;;;7.95;1.63;;;7.80;99.90;;;;;;5032028;28;20056;-63
2023/03/03 10:26:37;;;;;;;5.95;1.27;;;7.90;99.90;;;;;;5031691;28;20526;-62
2023/03/03 10:29:25;;;;;;;4.43;1.17;;;8.00;99.90;;;;;;5032066;28;20567;-62
2023/03/03 10:32:28;;;;;;;16.25;2.25;;;8.30;99.90;;;;;;5012229;28;20566;-63
2023/03/03 10:35:42;;;;;;;3.88;1.20;;;8.20;99.90;;;;;;5029162;28;20183;-62
2023/03/03 10:38:34;;;;;;;3.33;1.30;;;8.00;99.90;;;;;;5008279;28;20042;-62
2023/03/03 10:41:23;;;;;;;4.32;1.10;;;8.40;99.90;;;;;;5022658;28;20433;-62
2023/03/03 10:44:26;;;;;;;7.20;1.35;;;8.40;99.90;;;;;;5002261;28;20052;-62
2023/03/03 10:47:17;;;;;;;8.77;1.52;;;8.60;99.90;;;;;;5028093;28;20406;-63
2023/03/03 10:49:54;;;;;;;5.80;1.90;;;8.30;99.90;;;;;;5031266;28;20793;-62
2023/03/03 10:52:57;;;;;;;6.20;1.48;;;8.60;99.90;;;;;;5031224;28;20037;-63
2023/03/03 10:55:34;;;;;;;5.60;1.40;;;8.70;99.90;;;;;;5031111;28;20111;-63
2023/03/03 10:58:21;;;;;;;6.32;1.38;;;8.50;94.00;;;;;;5030661;28;20518;-63
2023/03/03 11:01:03;;;;;;;10.18;1.60;;;8.50;76.40;;;;;;5019611;28;20661;-63
2023/03/03 11:03:32;;;;;;;12.43;1.73;;;8.50;71.80;;;;;;5029024;28;20030;-62
2023/03/03 11:06:00;;;;;;;17.63;1.80;;;8.60;69.90;;;;;;5018499;28;20549;-63
2023/03/03 11:08:35;;;;;;;5.57;1.40;;;8.70;74.60;;;;;;5028302;28;20060;-62
2023/03/03 11:11:11;;;;;;;4.72;1.90;;;8.50;70.50;;;;;;5030316;28;20044;-62
2023/03/03 11:13:47;;;;;;;;;;;8.60;73.20;;;;;;5044423;28;20088;-63
2023/03/03 11:16:32;;;;;;;8.52;1.65;;;8.70;62.20;;;;;;5022354;28;19925;-63
2023/03/03 11:19:25;;;;;;;6.40;1.73;;;8.80;64.50;;;;;;5023984;28;20162;-62
2023/03/03 11:22:12;;;;;;;7.93;1.55;;;8.60;59.00;;;;;;5026989;28;20096;-62
2023/03/03 11:24:50;;;;;;;6.65;1.80;;;8.80;58.60;;;;;;5029698;28;20052;-62
2023/03/03 11:27:57;;;;;;;9.45;2.13;;;8.80;55.20;;;;;;5023358;28;20041;-62
2023/03/03 11:30:38;;;;;;;8.05;1.63;;;8.80;51.10;;;;;;5007278;28;20562;-63
2023/03/03 11:33:28;;;;;;;9.23;1.63;;;8.70;45.90;;;;;;5005419;28;20123;-62
2023/03/03 11:36:12;;;;;;;5.63;1.60;;;8.60;44.80;;;;;;5009851;28;20126;-62
2023/03/03 11:38:46;;;;;;;10.50;2.08;;;8.60;52.40;;;;;;5029100;28;20033;-63
2023/03/03 11:41:36;;;;;;;8.60;2.33;;;8.80;56.20;;;;;;5028594;28;20525;-62
2023/03/03 11:44:11;;;;;;;6.10;1.92;;;9.90;57.70;;;;;;5026049;28;20046;-63
2023/03/03 11:46:59;;;;;;;9.32;1.80;;;8.80;50.40;;;;;;5028989;28;20073;-64
2023/03/03 11:49:51;;;;;;;10.48;2.22;;;8.80;48.50;;;;;;5028798;28;20159;-63
2023/03/03 11:52:42;;;;;;;9.38;2.00;;;8.90;47.80;;;;;;5033865;28;20046;-63
2023/03/03 11:55:36;;;;;;;8.60;2.13;;;9.00;50.90;;;;;;5029104;28;20043;-63
2023/03/03 11:58:27;;;;;;;15.70;2.30;;;9.00;48.40;;;;;;5027323;28;20051;-63
2023/03/03 12:01:04;;;;;;;13.38;2.55;;;8.80;48.60;;;;;;5028326;28;20045;-63
2023/03/03 12:03:40;;;;;;;13.73;2.63;;;8.90;44.50;;;;;;5024524;28;20042;-63
2023/03/03 12:06:11;;;;;;;14.15;2.70;;;8.70;40.30;;;;;;5028491;28;20415;-63
2023/03/03 12:09:02;;;;;;;13.00;2.78;;;8.80;43.10;;;;;;5026088;28;20045;-63
2023/03/03 12:11:56;;;;;;;11.30;2.58;;;9.00;46.20;;;;;;5025338;28;20088;-63
2023/03/03 12:14:28;;;;;;;14.80;2.90;;;8.90;30.50;;;;;;5021695;28;20102;-63
2023/03/03 12:16:57;;;;;;;11.52;2.63;;;9.70;24.60;;;;;;5024411;28;20125;-63
2023/03/03 12:19:41;;;;;;;14.88;2.65;;;9.10;22.30;;;;;;5021347;28;20425;-63
2023/03/03 12:22:14;;;;;;;11.93;2.88;;;9.10;11.50;;;;;;5028512;28;20120;-63
2023/03/03 12:24:54;;;;;;;15.98;3.38;;;9.20;8.70;;;;;;5029911;28;20041;-63
2023/03/03 12:28:13;;;;;;;20.88;3.75;;;9.20;8.90;;;;;;5012161;28;20053;-63
2023/03/03 12:30:59;;;;;;;19.00;3.38;;;9.20;13.30;;;;;;4987858;28;20077;-63
2023/03/03 12:33:45;;;;;;;13.30;2.90;;;9.10;13.90;;;;;;5020099;28;20175;-64
2023/03/03 12:36:29;;;;;;;14.32;3.25;;;9.20;13.10;;;;;;5029227;28;20045;-65
2023/03/03 12:39:01;;;;;;;13.05;3.47;;;9.20;17.30;;;;;;5026067;28;20077;-63
2023/03/03 12:41:46;;;;;;;17.85;3.13;;;9.20;19.90;;;;;;5025202;28;20044;-63
2023/03/03 12:44:37;;;;;;;23.42;4.07;;;9.20;22.50;;;;;;5029776;28;20037;-63
2023/03/03 12:47:36;;;;;;;24.98;4.82;;;9.10;25.60;;;;;;5027401;28;20091;-63
2023/03/03 12:50:22;;;;;;;23.75;4.95;;;8.80;32.50;;;;;;5025802;28;20094;-63
2023/03/03 12:52:56;;;;;;;27.38;5.30;;;8.90;29.20;;;;;;5023885;28;20049;-63
2023/03/03 12:55:35;;;;;;;25.50;4.78;;;8.90;33.80;;;;;;5028810;28;20046;-63
2023/03/03 12:58:24;;;;;;;23.00;4.32;;;8.80;34.10;;;;;;5030314;28;20523;-63
2023/03/03 13:01:15;;;;;;;21.90;4.28;;;8.80;29.90;;;;;;5017002;28;20081;-63
2023/03/03 13:04:06;;;;;;;20.33;3.78;;;8.80;36.00;;;;;;5032142;28;20099;-63
2023/03/03 13:06:36;;;;;;;27.80;5.45;;;8.90;27.60;;;;;;5033488;28;20048;-63
2023/03/03 13:09:29;;;;;;;22.45;4.78;;;8.80;18.80;;;;;;5027444;28;20550;-63
2023/03/03 13:12:07;;;;;;;30.80;5.50;;;8.80;19.50;;;;;;5027872;28;20049;-63
2023/03/03 13:14:38;;;;;;;26.48;4.60;;;8.80;25.10;;;;;;5028050;28;20479;-63
2023/03/03 13:17:28;;;;;;;26.52;4.72;;;8.90;28.80;;;;;;5030020;28;20037;-63
2023/03/03 13:20:16;;;;;;;25.88;4.93;;;8.60;28.20;;;;;;5031219;28;20535;-63
2023/03/03 13:23:06;;;;;;;29.10;5.18;;;8.70;29.00;;;;;;5028890;28;20038;-63
2023/03/03 13:25:50;;;;;;;26.85;4.88;;;8.70;30.40;;;;;;5031690;28;20033;-63
2023/03/03 13:28:33;;;;;;;23.77;4.75;;;8.80;42.30;;;;;;5029374;28;20037;-63